createdAt,value
2022-08-28T00:00:26.337Z,1006.00
2022-08-28T00:01:26.849Z,1006.01
2022-08-28T00:02:26.248Z,1006.01
2022-08-28T00:03:26.191Z,1006.02
2022-08-28T00:04:26.184Z,1006.04
2022-08-28T00:05:26.154Z,1006.05
2022-08-28T00:06:26.133Z,1006.06
2022-08-28T00:07:26.129Z,1006.07
2022-08-28T00:08:26.195Z,1006.08
2022-08-28T00:09:26.098Z,1006.08
2022-08-28T00:10:26.077Z,1006.08
2022-08-28T00:11:26.077Z,1006.08
2022-08-28T00:12:26.389Z,1006.09
2022-08-28T00:13:26.103Z,1006.10
2022-08-28T00:14:26.250Z,1006.10
2022-08-28T00:15:26.045Z,1006.11
2022-08-28T00:16:26.156Z,1006.13
2022-08-28T00:17:26.026Z,1006.16
2022-08-28T00:18:26.397Z,1006.19
2022-08-28T00:19:26.011Z,1006.20
2022-08-28T00:20:26.998Z,1006.21
2022-08-28T00:21:25.982Z,1006.21
2022-08-28T00:22:25.956Z,1006.22
2022-08-28T00:23:25.946Z,1006.20
2022-08-28T00:24:25.932Z,1006.19
2022-08-28T00:25:25.934Z,1006.19
2022-08-28T00:26:26.247Z,1006.18
2022-08-28T00:27:25.926Z,1006.16
2022-08-28T00:28:25.959Z,1006.15
2022-08-28T00:29:25.983Z,1006.16
2022-08-28T00:30:26.203Z,1006.16
2022-08-28T00:31:26.171Z,1006.15
2022-08-28T00:32:25.864Z,1006.14
2022-08-28T00:33:25.998Z,1006.17
2022-08-28T00:34:33.176Z,1006.18
2022-08-28T00:35:25.831Z,1006.18
2022-08-28T00:36:25.992Z,1006.20
2022-08-28T00:37:25.824Z,1006.20
2022-08-28T00:38:25.799Z,1006.19
2022-08-28T00:39:26.046Z,1006.18
2022-08-28T00:40:32.824Z,1006.18
2022-08-28T00:41:25.877Z,1006.18
2022-08-28T00:42:25.867Z,1006.17
2022-08-28T00:43:25.869Z,1006.18
2022-08-28T00:44:26.607Z,1006.18
2022-08-28T00:45:25.930Z,1006.18
2022-08-28T00:46:25.758Z,1006.17
2022-08-28T00:47:25.723Z,1006.17
2022-08-28T00:48:25.690Z,1006.18
2022-08-28T00:49:25.843Z,1006.17
2022-08-28T00:50:25.702Z,1006.16
2022-08-28T00:51:25.747Z,1006.16
2022-08-28T00:52:25.658Z,1006.15
2022-08-28T00:53:29.917Z,1006.15
2022-08-28T00:54:25.628Z,1006.14
2022-08-28T00:55:25.640Z,1006.14
2022-08-28T00:56:31.647Z,1006.12
2022-08-28T00:57:27.113Z,1006.12
2022-08-28T00:58:26.383Z,1006.12
2022-08-28T00:59:25.594Z,1006.12
2022-08-28T01:00:25.571Z,1006.11
2022-08-28T01:01:25.676Z,1006.11
2022-08-28T01:02:25.621Z,1006.10
2022-08-28T01:03:26.573Z,1006.09
2022-08-28T01:04:25.576Z,1006.08
2022-08-28T01:05:26.277Z,1006.07
2022-08-28T01:06:25.589Z,1006.06
2022-08-28T01:07:25.493Z,1006.06
2022-08-28T01:08:25.507Z,1006.05
2022-08-28T01:09:25.488Z,1006.03
2022-08-28T01:10:25.449Z,1006.03
2022-08-28T01:11:25.503Z,1006.03
2022-08-28T01:12:27.177Z,1006.03
2022-08-28T01:13:25.474Z,1006.04
2022-08-28T01:14:25.430Z,1006.05
2022-08-28T01:15:26.443Z,1006.07
2022-08-28T01:16:31.596Z,1006.08
2022-08-28T01:17:25.555Z,1006.10
2022-08-28T01:18:25.394Z,1006.11
2022-08-28T01:19:25.442Z,1006.13
2022-08-28T01:20:25.413Z,1006.13
2022-08-28T01:21:25.419Z,1006.14
2022-08-28T01:22:26.349Z,1006.14
2022-08-28T01:23:25.396Z,1006.13
2022-08-28T01:24:25.347Z,1006.14
2022-08-28T01:25:25.518Z,1006.14
2022-08-28T01:26:25.302Z,1006.13
2022-08-28T01:27:25.354Z,1006.14
2022-08-28T01:28:25.289Z,1006.13
2022-08-28T01:29:27.568Z,1006.13
2022-08-28T01:30:25.276Z,1006.12
2022-08-28T01:31:25.316Z,1006.12
2022-08-28T01:32:25.578Z,1006.12
2022-08-28T01:33:28.107Z,1006.13
2022-08-28T01:34:25.257Z,1006.12
2022-08-28T01:35:25.378Z,1006.13
2022-08-28T01:36:25.217Z,1006.15
2022-08-28T01:37:25.448Z,1006.16
2022-08-28T01:38:26.985Z,1006.18
2022-08-28T01:39:25.183Z,1006.19
2022-08-28T01:40:25.315Z,1006.20
2022-08-28T01:41:25.174Z,1006.21
2022-08-28T01:42:25.669Z,1006.22
2022-08-28T01:43:25.123Z,1006.23
2022-08-28T01:44:25.178Z,1006.25
2022-08-28T01:45:25.099Z,1006.25
2022-08-28T01:46:25.200Z,1006.25
2022-08-28T01:47:25.275Z,1006.25
2022-08-28T01:48:25.895Z,1006.25
2022-08-28T01:49:27.939Z,1006.24
2022-08-28T01:50:25.073Z,1006.24
2022-08-28T01:51:25.057Z,1006.24
2022-08-28T01:52:26.544Z,1006.24
2022-08-28T01:53:25.496Z,1006.23
2022-08-28T01:54:25.042Z,1006.23
2022-08-28T01:55:25.012Z,1006.23
2022-08-28T01:56:25.232Z,1006.22
2022-08-28T01:57:24.990Z,1006.22
2022-08-28T01:58:24.980Z,1006.21
2022-08-28T01:59:25.438Z,1006.21
2022-08-28T02:00:25.913Z,1006.22
2022-08-28T02:01:25.005Z,1006.22
2022-08-28T02:02:24.951Z,1006.22
2022-08-28T02:03:24.925Z,1006.21
2022-08-28T02:04:31.935Z,1006.21
2022-08-28T02:05:24.920Z,1006.22
2022-08-28T02:06:24.926Z,1006.21
2022-08-28T02:07:25.208Z,1006.21
2022-08-28T02:08:24.884Z,1006.21
2022-08-28T02:09:25.056Z,1006.21
2022-08-28T02:10:24.882Z,1006.20
2022-08-28T02:11:24.876Z,1006.20
2022-08-28T02:12:25.102Z,1006.18
2022-08-28T02:13:25.710Z,1006.17
2022-08-28T02:14:24.849Z,1006.16
2022-08-28T02:15:25.452Z,1006.15
2022-08-28T02:16:24.811Z,1006.15
2022-08-28T02:17:24.797Z,1006.14
2022-08-28T02:18:24.898Z,1006.13
2022-08-28T02:19:24.945Z,1006.12
2022-08-28T02:20:25.355Z,1006.13
2022-08-28T02:21:24.740Z,1006.13
2022-08-28T02:22:24.770Z,1006.13
2022-08-28T02:23:24.724Z,1006.13
2022-08-28T02:24:24.755Z,1006.14
2022-08-28T02:25:24.779Z,1006.14
2022-08-28T02:26:25.264Z,1006.14
2022-08-28T02:27:24.726Z,1006.14
2022-08-28T02:28:24.700Z,1006.15
2022-08-28T02:29:24.683Z,1006.16
2022-08-28T02:30:25.148Z,1006.17
2022-08-28T02:31:24.710Z,1006.17
2022-08-28T02:32:24.647Z,1006.18
2022-08-28T02:33:24.769Z,1006.18
2022-08-28T02:34:24.628Z,1006.18
2022-08-28T02:35:24.620Z,1006.18
2022-08-28T02:36:24.662Z,1006.18
2022-08-28T02:37:24.614Z,1006.18
2022-08-28T02:38:24.586Z,1006.19
2022-08-28T02:39:24.574Z,1006.19
2022-08-28T02:40:24.965Z,1006.19
2022-08-28T02:41:24.549Z,1006.19
2022-08-28T02:42:24.877Z,1006.18
2022-08-28T02:43:24.996Z,1006.18
2022-08-28T02:44:25.118Z,1006.18
2022-08-28T02:45:24.551Z,1006.18
2022-08-28T02:46:24.537Z,1006.17
2022-08-28T02:47:24.498Z,1006.17
2022-08-28T02:48:24.474Z,1006.18
2022-08-28T02:49:24.632Z,1006.16
2022-08-28T02:50:24.483Z,1006.17
2022-08-28T02:51:24.530Z,1006.17
2022-08-28T02:52:25.043Z,1006.16
2022-08-28T02:53:24.438Z,1006.15
2022-08-28T02:54:24.634Z,1006.15
2022-08-28T02:55:24.812Z,1006.13
2022-08-28T02:56:24.454Z,1006.13
2022-08-28T02:57:24.441Z,1006.12
2022-08-28T02:58:24.469Z,1006.13
2022-08-28T02:59:24.379Z,1006.13
2022-08-28T03:00:24.378Z,1006.12
2022-08-28T03:01:24.751Z,1006.11
2022-08-28T03:02:25.486Z,1006.12
2022-08-28T03:03:24.398Z,1006.13
2022-08-28T03:04:24.367Z,1006.15
2022-08-28T03:05:24.577Z,1006.17
2022-08-28T03:06:24.350Z,1006.17
2022-08-28T03:07:24.434Z,1006.16
2022-08-28T03:08:27.140Z,1006.18
2022-08-28T03:09:24.579Z,1006.16
2022-08-28T03:10:24.283Z,1006.17
2022-08-28T03:11:24.280Z,1006.16
2022-08-28T03:12:24.245Z,1006.15
2022-08-28T03:13:27.212Z,1006.14
2022-08-28T03:14:25.256Z,1006.12
2022-08-28T03:15:24.254Z,1006.12
2022-08-28T03:16:24.541Z,1006.13
2022-08-28T03:17:24.181Z,1006.12
2022-08-28T03:18:24.319Z,1006.12
2022-08-28T03:19:25.101Z,1006.13
2022-08-28T03:21:34.937Z,1006.14
2022-08-28T03:23:27.478Z,1006.14
2022-08-28T03:24:29.031Z,1006.15
2022-08-28T03:26:38.770Z,1006.15
2022-08-28T03:27:46.563Z,1006.14
2022-08-28T03:28:39.715Z,1006.14
2022-08-28T03:29:40.012Z,1006.14
2022-08-28T03:30:46.237Z,1006.12
2022-08-28T03:31:39.728Z,1006.14
2022-08-28T03:33:31.070Z,1006.15
2022-08-28T03:34:32.060Z,1006.16
2022-08-28T03:36:42.937Z,1006.17
2022-08-28T03:37:43.916Z,1006.16
2022-08-28T03:40:12.817Z,1006.15
2022-08-28T03:41:13.982Z,1006.14
2022-08-28T03:42:22.963Z,1006.13
2022-08-28T03:43:13.728Z,1006.14
2022-08-28T03:44:13.699Z,1006.13
2022-08-28T03:45:13.671Z,1006.12
2022-08-28T03:46:13.758Z,1006.12
2022-08-28T03:47:14.015Z,1006.12
2022-08-28T03:48:13.840Z,1006.13
2022-08-28T03:49:13.621Z,1006.14
2022-08-28T03:50:13.624Z,1006.14
2022-08-28T03:51:13.633Z,1006.16
2022-08-28T03:52:13.629Z,1006.17
2022-08-28T03:53:13.582Z,1006.17
2022-08-28T03:54:13.782Z,1006.16
2022-08-28T03:55:13.907Z,1006.16
2022-08-28T03:56:13.790Z,1006.15
2022-08-28T03:57:13.790Z,1006.13
2022-08-28T03:58:18.987Z,1006.12
2022-08-28T03:59:13.540Z,1006.12
2022-08-28T04:00:13.558Z,1006.12
2022-08-28T04:01:13.684Z,1006.11
2022-08-28T04:02:20.857Z,1006.11
2022-08-28T04:03:13.591Z,1006.14
2022-08-28T04:04:13.454Z,1006.15
2022-08-28T04:05:19.631Z,1006.15
2022-08-28T04:06:13.494Z,1006.18
2022-08-28T04:08:04.222Z,1006.20
2022-08-28T04:09:12.407Z,1006.19
2022-08-28T04:10:11.366Z,1006.19
2022-08-28T04:11:05.378Z,1006.21
2022-08-28T04:13:15.451Z,1006.22
2022-08-28T04:14:16.433Z,1006.23
2022-08-28T04:15:16.421Z,1006.24
2022-08-28T04:16:16.431Z,1006.26
2022-08-28T04:17:16.417Z,1006.27
2022-08-28T04:18:16.398Z,1006.29
2022-08-28T04:19:16.353Z,1006.31
2022-08-28T04:20:16.337Z,1006.33
2022-08-28T04:21:16.357Z,1006.33
2022-08-28T04:22:16.330Z,1006.34
2022-08-28T04:23:16.332Z,1006.35
2022-08-28T04:24:16.305Z,1006.35
2022-08-28T04:25:16.305Z,1006.36
2022-08-28T04:26:16.292Z,1006.37
2022-08-28T04:27:16.303Z,1006.37
2022-08-28T04:28:16.279Z,1006.38
2022-08-28T04:29:16.288Z,1006.38
2022-08-28T04:30:16.225Z,1006.39
2022-08-28T04:31:16.283Z,1006.38
2022-08-28T04:32:16.259Z,1006.39
2022-08-28T04:33:16.253Z,1006.39
2022-08-28T04:34:16.196Z,1006.39
2022-08-28T04:35:16.189Z,1006.40
2022-08-28T04:36:16.191Z,1006.40
2022-08-28T04:37:16.200Z,1006.41
2022-08-28T04:38:16.318Z,1006.41
2022-08-28T04:39:16.161Z,1006.42
2022-08-28T04:40:16.264Z,1006.42
2022-08-28T04:41:16.145Z,1006.42
2022-08-28T04:42:16.139Z,1006.44
2022-08-28T04:43:16.116Z,1006.42
2022-08-28T04:44:16.101Z,1006.42
2022-08-28T04:45:16.099Z,1006.41
2022-08-28T04:46:16.164Z,1006.41
2022-08-28T04:47:16.090Z,1006.42
2022-08-28T04:48:16.331Z,1006.41
2022-08-28T04:49:16.056Z,1006.45
2022-08-28T04:50:16.027Z,1006.45
2022-08-28T04:51:16.071Z,1006.48
2022-08-28T04:52:16.105Z,1006.50
2022-08-28T04:53:16.046Z,1006.52
2022-08-28T04:54:15.984Z,1006.54
2022-08-28T04:55:15.999Z,1006.56
2022-08-28T04:56:15.976Z,1006.57
2022-08-28T04:57:15.986Z,1006.57
2022-08-28T04:58:15.978Z,1006.58
2022-08-28T04:59:15.999Z,1006.57
2022-08-28T05:00:15.936Z,1006.57
2022-08-28T05:01:16.013Z,1006.56
2022-08-28T05:02:15.979Z,1006.55
2022-08-28T05:03:15.956Z,1006.56
2022-08-28T05:04:15.895Z,1006.55
2022-08-28T05:05:15.914Z,1006.53
2022-08-28T05:06:15.873Z,1006.54
2022-08-28T05:07:15.901Z,1006.55
2022-08-28T05:08:15.876Z,1006.57
2022-08-28T05:09:15.886Z,1006.59
2022-08-28T05:10:15.861Z,1006.60
2022-08-28T05:11:32.728Z,1006.61
2022-08-28T05:12:15.844Z,1006.61
2022-08-28T05:13:15.842Z,1006.62
2022-08-28T05:14:16.408Z,1006.62
2022-08-28T05:15:15.936Z,1006.64
2022-08-28T05:16:15.811Z,1006.64
2022-08-28T05:17:15.786Z,1006.66
2022-08-28T05:18:15.772Z,1006.68
2022-08-28T05:19:15.788Z,1006.68
2022-08-28T05:20:15.745Z,1006.70
2022-08-28T05:21:15.755Z,1006.71
2022-08-28T05:22:15.707Z,1006.73
2022-08-28T05:23:15.714Z,1006.75
2022-08-28T05:24:15.725Z,1006.75
2022-08-28T05:25:15.711Z,1006.77
2022-08-28T05:26:15.678Z,1006.78
2022-08-28T05:27:15.706Z,1006.79
2022-08-28T05:28:15.709Z,1006.81
2022-08-28T05:29:15.745Z,1006.83
2022-08-28T05:30:15.638Z,1006.86
2022-08-28T05:31:15.715Z,1006.86
2022-08-28T05:32:15.621Z,1006.87
2022-08-28T05:33:15.634Z,1006.89
2022-08-28T05:34:15.634Z,1006.90
2022-08-28T05:35:15.626Z,1006.90
2022-08-28T05:36:15.578Z,1006.91
2022-08-28T05:37:19.572Z,1006.92
2022-08-28T05:38:15.672Z,1006.94
2022-08-28T05:39:15.578Z,1006.94
2022-08-28T05:40:15.642Z,1006.94
2022-08-28T05:41:15.560Z,1006.95
2022-08-28T05:42:15.524Z,1006.95
2022-08-28T05:43:15.531Z,1006.96
2022-08-28T05:44:15.500Z,1006.95
2022-08-28T05:45:15.539Z,1006.95
2022-08-28T05:46:15.517Z,1006.96
2022-08-28T05:47:15.475Z,1006.97
2022-08-28T05:48:15.447Z,1006.98
2022-08-28T05:49:15.469Z,1006.97
2022-08-28T05:50:15.440Z,1006.98
2022-08-28T05:51:15.438Z,1006.97
2022-08-28T05:52:15.444Z,1006.98
2022-08-28T05:53:15.401Z,1006.98
2022-08-28T05:54:15.421Z,1006.97
2022-08-28T05:55:15.393Z,1006.99
2022-08-28T05:56:15.528Z,1006.99
2022-08-28T05:57:15.387Z,1007.00
2022-08-28T05:58:15.350Z,1006.99
2022-08-28T05:59:15.367Z,1006.97
2022-08-28T06:00:15.344Z,1006.97
2022-08-28T06:01:15.345Z,1006.96
2022-08-28T06:02:15.376Z,1006.96
2022-08-28T06:03:15.314Z,1006.96
2022-08-28T06:04:15.452Z,1006.97
2022-08-28T06:05:15.317Z,1006.97
2022-08-28T06:06:15.299Z,1006.98
2022-08-28T06:07:15.278Z,1007.00
2022-08-28T06:08:15.261Z,1007.02
2022-08-28T06:09:15.257Z,1007.03
2022-08-28T06:10:15.311Z,1007.04
2022-08-28T06:11:15.217Z,1007.04
2022-08-28T06:12:15.675Z,1007.04
2022-08-28T06:13:15.207Z,1007.03
2022-08-28T06:14:16.227Z,1007.03
2022-08-28T06:15:15.193Z,1007.02
2022-08-28T06:16:15.228Z,1007.02
2022-08-28T06:17:15.159Z,1007.02
2022-08-28T06:18:15.212Z,1007.03
2022-08-28T06:19:15.488Z,1007.05
2022-08-28T06:20:15.150Z,1007.06
2022-08-28T06:21:15.138Z,1007.06
2022-08-28T06:22:15.111Z,1007.06
2022-08-28T06:23:15.102Z,1007.08
2022-08-28T06:24:15.120Z,1007.10
2022-08-28T06:25:15.112Z,1007.10
2022-08-28T06:26:15.088Z,1007.13
2022-08-28T06:27:15.134Z,1007.14
2022-08-28T06:28:15.073Z,1007.16
2022-08-28T06:29:15.075Z,1007.17
2022-08-28T06:30:15.038Z,1007.19
2022-08-28T06:31:24.627Z,1007.19
2022-08-28T06:32:15.076Z,1007.20
2022-08-28T06:33:15.029Z,1007.19
2022-08-28T06:34:15.022Z,1007.19
2022-08-28T06:35:15.097Z,1007.19
2022-08-28T06:36:14.978Z,1007.19
2022-08-28T06:37:14.957Z,1007.18
2022-08-28T06:38:15.037Z,1007.18
2022-08-28T06:39:14.972Z,1007.17
2022-08-28T06:40:15.020Z,1007.18
2022-08-28T06:41:14.913Z,1007.18
2022-08-28T06:42:14.916Z,1007.18
2022-08-28T06:43:14.894Z,1007.19
2022-08-28T06:44:14.957Z,1007.19
2022-08-28T06:45:14.882Z,1007.19
2022-08-28T06:46:15.073Z,1007.20
2022-08-28T06:47:14.856Z,1007.17
2022-08-28T06:48:14.859Z,1007.17
2022-08-28T06:49:14.866Z,1007.17
2022-08-28T06:50:14.873Z,1007.17
2022-08-28T06:51:14.829Z,1007.16
2022-08-28T06:52:14.806Z,1007.17
2022-08-28T06:53:14.806Z,1007.18
2022-08-28T06:54:17.264Z,1007.19
2022-08-28T06:55:14.782Z,1007.20
2022-08-28T06:56:26.026Z,1007.20
2022-08-28T06:57:14.769Z,1007.21
2022-08-28T06:58:14.905Z,1007.21
2022-08-28T06:59:14.755Z,1007.20
2022-08-28T07:00:14.723Z,1007.21
2022-08-28T07:01:14.838Z,1007.21
2022-08-28T07:02:14.834Z,1007.21
2022-08-28T07:03:14.690Z,1007.22
2022-08-28T07:04:14.845Z,1007.22
2022-08-28T07:05:14.689Z,1007.22
2022-08-28T07:06:14.680Z,1007.21
2022-08-28T07:07:31.264Z,1007.22
2022-08-28T07:08:14.783Z,1007.24
2022-08-28T07:09:14.698Z,1007.25
2022-08-28T07:10:14.681Z,1007.24
2022-08-28T07:11:14.611Z,1007.26
2022-08-28T07:12:14.608Z,1007.25
2022-08-28T07:13:14.601Z,1007.26
2022-08-28T07:14:14.602Z,1007.27
2022-08-28T07:15:14.547Z,1007.27
2022-08-28T07:16:14.664Z,1007.26
2022-08-28T07:17:14.523Z,1007.27
2022-08-28T07:18:14.597Z,1007.28
2022-08-28T07:19:14.530Z,1007.28
2022-08-28T07:20:14.551Z,1007.28
2022-08-28T07:21:14.526Z,1007.30
2022-08-28T07:22:14.502Z,1007.30
2022-08-28T07:23:14.477Z,1007.29
2022-08-28T07:24:14.486Z,1007.29
2022-08-28T07:25:14.463Z,1007.29
2022-08-28T07:26:14.478Z,1007.28
2022-08-28T07:27:18.755Z,1007.28
2022-08-28T07:28:14.699Z,1007.28
2022-08-28T07:29:14.450Z,1007.28
2022-08-28T07:30:14.413Z,1007.26
2022-08-28T07:31:14.434Z,1007.25
2022-08-28T07:32:14.424Z,1007.27
2022-08-28T07:33:14.392Z,1007.28
2022-08-28T07:34:14.376Z,1007.29
2022-08-28T07:35:14.407Z,1007.29
2022-08-28T07:36:22.051Z,1007.31
2022-08-28T07:37:15.399Z,1007.33
2022-08-28T07:38:14.493Z,1007.30
2022-08-28T07:39:14.364Z,1007.31
2022-08-28T07:40:14.389Z,1007.34
2022-08-28T07:41:14.332Z,1007.34
2022-08-28T07:42:14.332Z,1007.34
2022-08-28T07:43:14.290Z,1007.34
2022-08-28T07:44:14.279Z,1007.31
2022-08-28T07:45:14.285Z,1007.31
2022-08-28T07:46:14.297Z,1007.34
2022-08-28T07:47:14.273Z,1007.35
2022-08-28T07:48:14.576Z,1007.35
2022-08-28T07:49:14.358Z,1007.34
2022-08-28T07:50:14.224Z,1007.33
2022-08-28T07:51:14.189Z,1007.33
2022-08-28T07:52:14.458Z,1007.34
2022-08-28T07:53:14.176Z,1007.34
2022-08-28T07:54:15.446Z,1007.34
2022-08-28T07:55:14.163Z,1007.33
2022-08-28T07:56:14.214Z,1007.34
2022-08-28T07:57:14.143Z,1007.35
2022-08-28T07:58:14.259Z,1007.34
2022-08-28T07:59:16.927Z,1007.34
2022-08-28T08:00:14.157Z,1007.34
2022-08-28T08:01:14.153Z,1007.35
2022-08-28T08:02:14.070Z,1007.30
2022-08-28T08:03:14.112Z,1007.36
2022-08-28T08:04:14.067Z,1007.43
2022-08-28T08:05:14.332Z,1007.45
2022-08-28T08:06:14.031Z,1007.43
2022-08-28T08:07:21.422Z,1007.41
2022-08-28T08:08:14.269Z,1007.39
2022-08-28T08:09:14.117Z,1007.42
2022-08-28T08:10:14.072Z,1007.41
2022-08-28T08:11:16.641Z,1007.43
2022-08-28T08:12:13.983Z,1007.43
2022-08-28T08:13:13.952Z,1007.42
2022-08-28T08:14:13.970Z,1007.41
2022-08-28T08:15:13.952Z,1007.41
2022-08-28T08:16:14.133Z,1007.40
2022-08-28T08:17:13.934Z,1007.40
2022-08-28T08:18:14.103Z,1007.38
2022-08-28T08:19:13.917Z,1007.41
2022-08-28T08:20:13.921Z,1007.33
2022-08-28T08:21:13.890Z,1007.43
2022-08-28T08:22:13.893Z,1007.44
2022-08-28T08:23:13.883Z,1007.44
2022-08-28T08:24:19.978Z,1007.46
2022-08-28T08:25:13.861Z,1007.42
2022-08-28T08:26:14.432Z,1007.36
2022-08-28T08:27:13.853Z,1007.36
2022-08-28T08:28:13.947Z,1007.44
2022-08-28T08:29:13.795Z,1007.44
2022-08-28T08:30:13.847Z,1007.45
2022-08-28T08:31:13.861Z,1007.49
2022-08-28T08:32:13.800Z,1007.47
2022-08-28T08:33:13.763Z,1007.49
2022-08-28T08:34:13.779Z,1007.50
2022-08-28T08:35:13.780Z,1007.61
2022-08-28T08:36:13.814Z,1007.58
2022-08-28T08:37:13.732Z,1007.55
2022-08-28T08:38:13.944Z,1007.48
2022-08-28T08:39:13.703Z,1007.51
2022-08-28T08:40:13.731Z,1007.54
2022-08-28T08:41:13.692Z,1007.56
2022-08-28T08:42:13.708Z,1007.54
2022-08-28T08:43:13.694Z,1007.58
2022-08-28T08:44:13.673Z,1007.62
2022-08-28T08:45:13.666Z,1007.53
2022-08-28T08:46:13.755Z,1007.62
2022-08-28T08:47:15.219Z,1007.51
2022-08-28T08:48:13.808Z,1007.59
2022-08-28T08:49:13.603Z,1007.61
2022-08-28T08:50:13.622Z,1007.42
2022-08-28T08:51:13.589Z,1007.45
2022-08-28T08:52:13.589Z,1007.51
2022-08-28T08:53:13.569Z,1007.44
2022-08-28T08:54:13.578Z,1007.47
2022-08-28T08:55:15.131Z,1007.46
2022-08-28T08:56:14.440Z,1007.48
2022-08-28T08:57:13.551Z,1007.48
2022-08-28T08:58:13.776Z,1007.49
2022-08-28T08:59:20.545Z,1007.49
2022-08-28T09:00:15.973Z,1007.50
2022-08-28T09:01:13.562Z,1007.53
2022-08-28T09:02:13.555Z,1007.58
2022-08-28T09:03:13.500Z,1007.53
2022-08-28T09:04:13.483Z,1007.57
2022-08-28T09:05:13.476Z,1007.56
2022-08-28T09:06:13.605Z,1007.55
2022-08-28T09:07:13.465Z,1007.59
2022-08-28T09:08:13.606Z,1007.53
2022-08-28T09:09:13.429Z,1007.55
2022-08-28T09:10:13.409Z,1007.55
2022-08-28T09:11:13.418Z,1007.55
2022-08-28T09:12:13.421Z,1007.58
2022-08-28T09:13:13.377Z,1007.68
2022-08-28T09:14:13.383Z,1007.64
2022-08-28T09:15:13.849Z,1007.58
2022-08-28T09:16:13.404Z,1007.54
2022-08-28T09:17:13.357Z,1007.49
2022-08-28T09:18:13.393Z,1007.47
2022-08-28T09:19:13.376Z,1007.44
2022-08-28T09:20:13.324Z,1007.44
2022-08-28T09:21:13.321Z,1007.43
2022-08-28T09:22:13.294Z,1007.41
2022-08-28T09:23:13.995Z,1007.36
2022-08-28T09:24:13.275Z,1007.39
2022-08-28T09:25:13.282Z,1007.33
2022-08-28T09:26:13.284Z,1007.40
2022-08-28T09:27:14.508Z,1007.43
2022-08-28T09:28:13.500Z,1007.47
2022-08-28T09:29:13.222Z,1007.40
2022-08-28T09:30:13.530Z,1007.37
2022-08-28T09:31:13.288Z,1007.37
2022-08-28T09:32:13.200Z,1007.41
2022-08-28T09:33:13.180Z,1007.63
2022-08-28T09:34:13.221Z,1007.57
2022-08-28T09:35:13.162Z,1007.52
2022-08-28T09:36:13.164Z,1007.50
2022-08-28T09:37:14.044Z,1007.39
2022-08-28T09:38:13.294Z,1007.44
2022-08-28T09:39:13.131Z,1007.64
2022-08-28T09:40:13.202Z,1007.47
2022-08-28T09:41:13.129Z,1007.63
2022-08-28T09:42:13.099Z,1007.53
2022-08-28T09:43:13.079Z,1007.51
2022-08-28T09:44:13.112Z,1007.70
2022-08-28T09:45:13.050Z,1007.66
2022-08-28T09:46:13.146Z,1007.64
2022-08-28T09:47:13.036Z,1007.60
2022-08-28T09:48:13.192Z,1007.57
2022-08-28T09:49:13.058Z,1007.56
2022-08-28T09:50:13.023Z,1007.52
2022-08-28T09:51:13.014Z,1007.51
2022-08-28T09:52:13.036Z,1007.54
2022-08-28T09:53:12.985Z,1007.48
2022-08-28T09:54:12.976Z,1007.46
2022-08-28T09:55:12.984Z,1007.47
2022-08-28T09:56:12.965Z,1007.45
2022-08-28T09:57:12.953Z,1007.44
2022-08-28T09:58:13.837Z,1007.40
2022-08-28T09:59:12.960Z,1007.40
2022-08-28T10:00:12.920Z,1007.41
2022-08-28T10:01:13.004Z,1007.37
2022-08-28T10:02:12.954Z,1007.42
2022-08-28T10:03:12.917Z,1007.42
2022-08-28T10:04:12.925Z,1007.39
2022-08-28T10:07:22.408Z,1007.35
2022-08-28T10:09:14.535Z,1007.29
2022-08-28T10:10:15.528Z,1007.28
2022-08-28T10:11:15.487Z,1007.27
2022-08-28T10:12:15.488Z,1007.24
2022-08-28T10:13:15.495Z,1007.27
2022-08-28T10:14:15.493Z,1007.28
2022-08-28T10:15:15.695Z,1007.27
2022-08-28T10:16:15.562Z,1007.31
2022-08-28T10:17:15.430Z,1007.32
2022-08-28T10:18:15.477Z,1007.26
2022-08-28T10:19:15.423Z,1007.24
2022-08-28T10:20:15.411Z,1007.24
2022-08-28T10:21:15.411Z,1007.24
2022-08-28T10:22:15.456Z,1007.26
2022-08-28T10:23:17.665Z,1007.26
2022-08-28T10:24:15.432Z,1007.25
2022-08-28T10:25:15.399Z,1007.23
2022-08-28T10:26:15.391Z,1007.23
2022-08-28T10:27:15.352Z,1007.20
2022-08-28T10:28:15.553Z,1007.15
2022-08-28T10:29:15.330Z,1007.18
2022-08-28T10:30:15.367Z,1007.19
2022-08-28T10:31:15.419Z,1007.18
2022-08-28T10:32:15.374Z,1007.24
2022-08-28T10:33:15.316Z,1007.23
2022-08-28T10:34:15.309Z,1007.21
2022-08-28T10:35:15.303Z,1007.16
2022-08-28T10:36:28.734Z,1007.26
2022-08-28T10:37:15.351Z,1007.23
2022-08-28T10:38:15.474Z,1007.19
2022-08-28T10:39:15.283Z,1007.12
2022-08-28T10:40:15.280Z,1007.13
2022-08-28T10:41:15.251Z,1007.10
2022-08-28T10:42:15.230Z,1007.29
2022-08-28T10:43:15.224Z,1007.26
2022-08-28T10:44:15.253Z,1007.27
2022-08-28T10:45:15.188Z,1007.22
2022-08-28T10:46:15.309Z,1007.20
2022-08-28T10:47:15.177Z,1007.16
2022-08-28T10:48:15.394Z,1007.16
2022-08-28T10:49:15.189Z,1007.07
2022-08-28T10:50:15.167Z,1007.03
2022-08-28T10:51:15.147Z,1007.03
2022-08-28T10:52:15.150Z,1007.10
2022-08-28T10:53:15.120Z,1007.12
2022-08-28T10:54:15.371Z,1007.13
2022-08-28T10:55:15.145Z,1007.11
2022-08-28T10:56:15.135Z,1007.08
2022-08-28T10:57:15.105Z,1007.07
2022-08-28T10:58:24.720Z,1007.00
2022-08-28T10:59:15.090Z,1006.99
2022-08-28T11:00:15.085Z,1007.00
2022-08-28T11:01:15.139Z,1007.01
2022-08-28T11:02:15.096Z,1007.01
2022-08-28T11:03:33.490Z,1007.06
2022-08-28T11:05:25.826Z,1006.99
2022-08-28T11:06:26.746Z,1007.01
2022-08-28T11:07:26.821Z,1007.05
2022-08-28T11:08:26.957Z,1006.98
2022-08-28T11:09:26.746Z,1007.06
2022-08-28T11:10:26.747Z,1007.05
2022-08-28T11:11:26.811Z,1007.06
2022-08-28T11:12:26.691Z,1007.12
2022-08-28T11:14:29.916Z,1007.15
2022-08-28T11:15:36.737Z,1007.21
2022-08-28T11:17:22.073Z,1007.23
2022-08-28T11:19:17.938Z,1007.11
2022-08-28T11:20:17.912Z,1007.11
2022-08-28T11:21:17.915Z,1007.08
2022-08-28T11:23:50.010Z,1007.07
2022-08-28T11:24:51.037Z,1007.11
2022-08-28T11:25:51.846Z,1007.07
2022-08-28T11:26:57.164Z,1007.07
2022-08-28T11:27:50.963Z,1007.11
2022-08-28T11:28:57.147Z,1007.08
2022-08-28T11:29:51.244Z,1007.05
2022-08-28T11:31:42.902Z,1006.98
2022-08-28T11:32:52.955Z,1007.00
2022-08-28T11:34:38.554Z,1007.03
2022-08-28T11:35:48.040Z,1006.88
2022-08-28T11:38:03.041Z,1007.01
2022-08-28T11:39:11.411Z,1007.00
2022-08-28T11:40:04.258Z,1007.01
2022-08-28T11:41:03.963Z,1007.00
2022-08-28T11:42:04.031Z,1007.02
2022-08-28T11:43:04.025Z,1007.04
2022-08-28T11:44:04.063Z,1007.05
2022-08-28T11:45:03.933Z,1007.05
2022-08-28T11:46:03.973Z,1007.05
2022-08-28T11:48:15.065Z,1006.98
2022-08-28T11:49:15.761Z,1006.99
2022-08-28T11:50:15.850Z,1007.01
2022-08-28T11:51:15.861Z,1007.01
2022-08-28T11:52:15.748Z,1007.05
2022-08-28T11:53:15.713Z,1006.92
2022-08-28T11:54:16.129Z,1007.07
2022-08-28T11:55:16.636Z,1007.01
2022-08-28T11:56:26.362Z,1007.02
2022-08-28T11:57:15.689Z,1007.15
2022-08-28T11:58:16.709Z,1007.14
2022-08-28T11:59:15.672Z,1007.10
2022-08-28T12:00:15.675Z,1007.10
2022-08-28T12:01:16.545Z,1007.04
2022-08-28T12:02:16.360Z,1007.06
2022-08-28T12:03:15.738Z,1007.06
2022-08-28T12:04:15.676Z,1007.03
2022-08-28T12:05:15.622Z,1007.01
2022-08-28T12:06:15.656Z,1006.97
2022-08-28T12:07:16.947Z,1007.01
2022-08-28T12:08:16.928Z,1007.01
2022-08-28T12:09:15.612Z,1006.94
2022-08-28T12:10:15.580Z,1006.98
2022-08-28T12:11:15.586Z,1006.97
2022-08-28T12:12:15.859Z,1006.92
2022-08-28T12:13:15.851Z,1006.94
2022-08-28T12:14:15.745Z,1006.86
2022-08-28T12:15:15.541Z,1007.00
2022-08-28T12:16:15.701Z,1007.01
2022-08-28T12:17:15.533Z,1006.97
2022-08-28T12:18:16.533Z,1006.94
2022-08-28T12:19:15.507Z,1006.95
2022-08-28T12:20:15.499Z,1006.89
2022-08-28T12:21:15.526Z,1006.87
2022-08-28T12:22:15.634Z,1006.86
2022-08-28T12:23:15.700Z,1006.91
2022-08-28T12:24:17.272Z,1006.88
2022-08-28T12:25:16.499Z,1006.84
2022-08-28T12:26:16.227Z,1006.85
2022-08-28T12:27:15.476Z,1006.82